Astakos — 9HA4009 — position and weather

sailwx.info

Track history (hours):
 
Tides and Currents Weather Stations Pressure Air Temp Water Temp Dewpoint Dewpoint Depression Visibility Wind Speed Wind Dir Waves Ship Positions

Astakos

Last reported at 2018-Jul-13 23:26 UTC. Time now 2018-Jul-17 00:07 UTC.
Position N 01°22' E 103°16'.

Length 197 m; draft 10.7 m.

Type: Cargo ship. MMSI: 256785000.

Date/timePositionNaut miles runAvg speedWind from/ knotsBaromVisibWave heightAir tempDewpointWater temp
2018-Jul-13 23:26N 01°22' E 103°16'512.6
2018-Jul-13 22:59N 01°18' E 103°20'612.9
2018-Jul-13 22:30N 01°14' E 103°25'712.7
2018-Jul-13 21:58N 01°12' E 103°31'511.9
2018-Jul-13 21:30N 01°11' E 103°37'510.8
2018-Jul-13 21:00N 01°09' E 103°42'4 8.2
2018-Jul-13 20:30N 01°09' E 103°46'4 8.0
2018-Jul-13 19:59N 01°11' E 103°49'4 7.5
2018-Jul-13 19:30N 01°13' E 103°53'5 9.1
2018-Jul-13 19:00N 01°15' E 103°57'4 8.2
2018-Jul-13 18:30N 01°17' E 104°00'1 1.2
2018-Jul-13 18:00N 01°17' E 104°01'0 0.2
2018-Jul-13 17:29N 01°17' E 104°01'0 0.0
2018-Jul-13 16:59N 01°17' E 104°01'0 0.0
2018-Jul-13 16:26N 01°17' E 104°01'0 0.4
2018-Jul-13 15:59N 01°17' E 104°00'0 0.2
2018-Jul-13 15:28N 01°17' E 104°00'0 0.0
2018-Jul-13 14:58N 01°17' E 104°00'0 0.0
2018-Jul-13 13:41N 01°17' E 104°00'0 0.3
2018-Jul-13 13:28N 01°17' E 104°00'0 0.1
2018-Jul-13 13:00N 01°17' E 104°00'0 0.1
2018-Jul-13 12:24N 01°17' E 104°00'0 0.1
2018-Jul-13 11:59N 01°17' E 104°00'1 1.1
2018-Jul-13 11:30N 01°17' E 103°60'3 5.7
2018-Jul-13 11:00N 01°16' E 103°57'4 8.1
2018-Jul-13 10:30N 01°16' E 104°01'612.9
2018-Jul-13 10:00N 01°17' E 104°08'4 8.8
2018-Jul-13 09:30N 01°17' E 104°12'4 7.0
2018-Jul-13 08:59N 01°18' E 104°16'3 6.8
2018-Jul-13 08:30N 01°19' E 104°19'611.1
2018-Jul-13 07:58N 01°22' E 104°24'612.2
2018-Jul-13 07:30N 01°26' E 104°28'  
2018-Jul-07 15:36N 22°44' E 119°36'311.6
2018-Jul-07 15:23N 22°46' E 119°38'511.4
2018-Jul-07 14:56N 22°51' E 119°41'1011.6
2018-Jul-07 14:06N 22°59' E 119°46'  
Track history (hours):
 
Tides and Currents Weather Stations Pressure Air Temp Water Temp Dewpoint Dewpoint Depression Visibility Wind Speed Wind Dir Waves Ship Positions

Astakos

Last reported at 2018-Jul-13 23:26 UTC. Time now 2018-Jul-17 00:07 UTC.
Position N 01°22' E 103°16'.

Length 197 m; draft 10.7 m.

Type: Cargo ship. MMSI: 256785000.

Date/timePositionNaut miles runAvg speedWind from/ knotsBaromVisibWave heightAir tempDewpointWater temp
2018-Jul-13 23:26N 01°22' E 103°16'512.6
2018-Jul-13 22:59N 01°18' E 103°20'612.9
2018-Jul-13 22:30N 01°14' E 103°25'712.7
2018-Jul-13 21:58N 01°12' E 103°31'511.9
2018-Jul-13 21:30N 01°11' E 103°37'510.8
2018-Jul-13 21:00N 01°09' E 103°42'4 8.2
2018-Jul-13 20:30N 01°09' E 103°46'4 8.0
2018-Jul-13 19:59N 01°11' E 103°49'4 7.5
2018-Jul-13 19:30N 01°13' E 103°53'5 9.1
2018-Jul-13 19:00N 01°15' E 103°57'4 8.2
2018-Jul-13 18:30N 01°17' E 104°00'1 1.2
2018-Jul-13 18:00N 01°17' E 104°01'0 0.2
2018-Jul-13 17:29N 01°17' E 104°01'0 0.0
2018-Jul-13 16:59N 01°17' E 104°01'0 0.0
2018-Jul-13 16:26N 01°17' E 104°01'0 0.4
2018-Jul-13 15:59N 01°17' E 104°00'0 0.2
2018-Jul-13 15:28N 01°17' E 104°00'0 0.0
2018-Jul-13 14:58N 01°17' E 104°00'0 0.0
2018-Jul-13 13:41N 01°17' E 104°00'0 0.3
2018-Jul-13 13:28N 01°17' E 104°00'0 0.1
2018-Jul-13 13:00N 01°17' E 104°00'0 0.1
2018-Jul-13 12:24N 01°17' E 104°00'0 0.1
2018-Jul-13 11:59N 01°17' E 104°00'1 1.1
2018-Jul-13 11:30N 01°17' E 103°60'3 5.7
2018-Jul-13 11:00N 01°16' E 103°57'4 8.1
2018-Jul-13 10:30N 01°16' E 104°01'612.9
2018-Jul-13 10:00N 01°17' E 104°08'4 8.8
2018-Jul-13 09:30N 01°17' E 104°12'4 7.0
2018-Jul-13 08:59N 01°18' E 104°16'3 6.8
2018-Jul-13 08:30N 01°19' E 104°19'611.1
2018-Jul-13 07:58N 01°22' E 104°24'612.2
2018-Jul-13 07:30N 01°26' E 104°28'  
2018-Jul-07 15:36N 22°44' E 119°36'311.6
2018-Jul-07 15:23N 22°46' E 119°38'511.4
2018-Jul-07 14:56N 22°51' E 119°41'1011.6
2018-Jul-07 14:06N 22°59' E 119°46'  

Dump ship's entire track history